sensor_id;sensor_type;location;lat;lon;timestamp;temperature;humidity
33837;DHT22;20140;49.356;8.812;2023-10-13T00:01:47;14.80;99.90
33837;DHT22;20140;49.356;8.812;2023-10-13T00:04:12;14.80;99.90
33837;DHT22;20140;49.356;8.812;2023-10-13T00:06:38;14.90;99.90
33837;DHT22;20140;49.356;8.812;2023-10-13T00:09:04;15.00;99.90
33837;DHT22;20140;49.356;8.812;2023-10-13T00:11:30;15.00;99.90
33837;DHT22;20140;49.356;8.812;2023-10-13T00:13:55;14.90;99.90
33837;DHT22;20140;49.356;8.812;2023-10-13T00:16:21;14.90;99.90
33837;DHT22;20140;49.356;8.812;2023-10-13T00:18:48;15.10;99.90
33837;DHT22;20140;49.356;8.812;2023-10-13T00:21:16;15.20;99.90
33837;DHT22;20140;49.356;8.812;2023-10-13T00:23:46;15.10;99.90
33837;DHT22;20140;49.356;8.812;2023-10-13T00:28:50;15.00;99.90
33837;DHT22;20140;49.356;8.812;2023-10-13T00:31:25;14.90;99.90
33837;DHT22;20140;49.356;8.812;2023-10-13T00:33:54;14.90;99.90
33837;DHT22;20140;49.356;8.812;2023-10-13T00:36:21;14.90;99.90
33837;DHT22;20140;49.356;8.812;2023-10-13T00:38:46;14.90;99.90
33837;DHT22;20140;49.356;8.812;2023-10-13T00:41:18;14.90;99.90
33837;DHT22;20140;49.356;8.812;2023-10-13T00:43:58;14.80;99.90
33837;DHT22;20140;49.356;8.812;2023-10-13T00:46:34;14.80;99.90
33837;DHT22;20140;49.356;8.812;2023-10-13T00:49:01;15.00;99.90
33837;DHT22;20140;49.356;8.812;2023-10-13T00:51:29;15.00;99.90
33837;DHT22;20140;49.356;8.812;2023-10-13T00:54:05;15.00;99.90
33837;DHT22;20140;49.356;8.812;2023-10-13T00:56:41;14.90;99.90
33837;DHT22;20140;49.356;8.812;2023-10-13T00:59:15;14.90;99.90
33837;DHT22;20140;49.356;8.812;2023-10-13T01:01:41;15.20;99.90
33837;DHT22;20140;49.356;8.812;2023-10-13T01:04:10;15.10;99.90
33837;DHT22;20140;49.356;8.812;2023-10-13T01:06:38;15.10;99.90
33837;DHT22;20140;49.356;8.812;2023-10-13T01:09:06;15.10;99.90
33837;DHT22;20140;49.356;8.812;2023-10-13T01:11:39;14.90;99.90
33837;DHT22;20140;49.356;8.812;2023-10-13T01:14:05;14.90;99.90
33837;DHT22;20140;49.356;8.812;2023-10-13T01:16:31;14.90;99.90
33837;DHT22;20140;49.356;8.812;2023-10-13T01:18:56;14.90;99.90
33837;DHT22;20140;49.356;8.812;2023-10-13T01:21:26;14.90;99.90
33837;DHT22;20140;49.356;8.812;2023-10-13T01:23:55;14.80;99.90
33837;DHT22;20140;49.356;8.812;2023-10-13T01:26:20;14.80;99.90
33837;DHT22;20140;49.356;8.812;2023-10-13T01:28:57;14.80;99.90
33837;DHT22;20140;49.356;8.812;2023-10-13T01:31:23;14.80;99.90
33837;DHT22;20140;49.356;8.812;2023-10-13T01:33:56;14.80;99.90
33837;DHT22;20140;49.356;8.812;2023-10-13T01:36:26;14.80;99.90
33837;DHT22;20140;49.356;8.812;2023-10-13T01:38:52;14.80;99.90
33837;DHT22;20140;49.356;8.812;2023-10-13T01:41:20;14.80;99.90
33837;DHT22;20140;49.356;8.812;2023-10-13T01:43:46;14.90;99.90
33837;DHT22;20140;49.356;8.812;2023-10-13T01:46:11;15.00;99.90
33837;DHT22;20140;49.356;8.812;2023-10-13T01:48:41;14.90;99.90
33837;DHT22;20140;49.356;8.812;2023-10-13T01:51:08;14.90;99.90
33837;DHT22;20140;49.356;8.812;2023-10-13T01:53:36;14.80;99.90
33837;DHT22;20140;49.356;8.812;2023-10-13T01:56:03;14.80;99.90
33837;DHT22;20140;49.356;8.812;2023-10-13T01:58:31;14.90;99.90
33837;DHT22;20140;49.356;8.812;2023-10-13T02:00:57;14.90;99.90
33837;DHT22;20140;49.356;8.812;2023-10-13T02:03:22;14.90;99.90
33837;DHT22;20140;49.356;8.812;2023-10-13T02:05:49;14.90;99.90
33837;DHT22;20140;49.356;8.812;2023-10-13T02:08:24;14.90;99.90
33837;DHT22;20140;49.356;8.812;2023-10-13T02:10:54;15.00;99.90
33837;DHT22;20140;49.356;8.812;2023-10-13T02:13:22;15.00;99.90
33837;DHT22;20140;49.356;8.812;2023-10-13T02:15:48;14.80;99.90
33837;DHT22;20140;49.356;8.812;2023-10-13T02:18:18;14.70;99.90
33837;DHT22;20140;49.356;8.812;2023-10-13T02:20:46;14.70;99.90
33837;DHT22;20140;49.356;8.812;2023-10-13T02:23:20;14.80;99.90
33837;DHT22;20140;49.356;8.812;2023-10-13T02:25:45;14.90;99.90
33837;DHT22;20140;49.356;8.812;2023-10-13T02:28:11;14.80;99.90
33837;DHT22;20140;49.356;8.812;2023-10-13T02:30:41;14.90;99.90
33837;DHT22;20140;49.356;8.812;2023-10-13T02:33:13;14.90;99.90
33837;DHT22;20140;49.356;8.812;2023-10-13T02:35:42;14.90;99.90
33837;DHT22;20140;49.356;8.812;2023-10-13T02:38:15;14.90;99.90
33837;DHT22;20140;49.356;8.812;2023-10-13T02:40:42;14.80;99.90
33837;DHT22;20140;49.356;8.812;2023-10-13T02:43:07;14.80;99.90
33837;DHT22;20140;49.356;8.812;2023-10-13T02:45:33;14.80;99.90
33837;DHT22;20140;49.356;8.812;2023-10-13T02:48:05;14.90;99.90
33837;DHT22;20140;49.356;8.812;2023-10-13T02:50:43;14.80;99.90
33837;DHT22;20140;49.356;8.812;2023-10-13T02:53:10;14.60;99.90
33837;DHT22;20140;49.356;8.812;2023-10-13T02:55:52;14.50;99.90
33837;DHT22;20140;49.356;8.812;2023-10-13T02:58:18;14.40;99.90
33837;DHT22;20140;49.356;8.812;2023-10-13T03:00:44;14.40;99.90
33837;DHT22;20140;49.356;8.812;2023-10-13T03:03:10;14.40;99.90
33837;DHT22;20140;49.356;8.812;2023-10-13T03:05:36;14.40;99.90
33837;DHT22;20140;49.356;8.812;2023-10-13T03:08:05;14.30;99.90
33837;DHT22;20140;49.356;8.812;2023-10-13T03:10:31;14.40;99.90
33837;DHT22;20140;49.356;8.812;2023-10-13T03:12:58;14.40;99.90
33837;DHT22;20140;49.356;8.812;2023-10-13T03:15:24;14.50;99.90
33837;DHT22;20140;49.356;8.812;2023-10-13T03:17:56;14.50;99.90
33837;DHT22;20140;49.356;8.812;2023-10-13T03:20:24;14.50;99.90
33837;DHT22;20140;49.356;8.812;2023-10-13T03:22:57;14.50;99.90
33837;DHT22;20140;49.356;8.812;2023-10-13T03:25:22;14.40;99.90
33837;DHT22;20140;49.356;8.812;2023-10-13T03:27:54;14.40;99.90
33837;DHT22;20140;49.356;8.812;2023-10-13T03:30:20;14.30;99.90
33837;DHT22;20140;49.356;8.812;2023-10-13T03:32:47;14.20;99.90
33837;DHT22;20140;49.356;8.812;2023-10-13T03:35:20;14.10;99.90
33837;DHT22;20140;49.356;8.812;2023-10-13T03:37:56;14.20;99.90
33837;DHT22;20140;49.356;8.812;2023-10-13T03:40:22;14.40;99.90
33837;DHT22;20140;49.356;8.812;2023-10-13T03:42:49;14.40;99.90
33837;DHT22;20140;49.356;8.812;2023-10-13T03:45:24;14.40;99.90
33837;DHT22;20140;49.356;8.812;2023-10-13T03:47:51;14.40;99.90
33837;DHT22;20140;49.356;8.812;2023-10-13T03:50:17;14.60;99.90
33837;DHT22;20140;49.356;8.812;2023-10-13T03:52:55;14.50;99.90
33837;DHT22;20140;49.356;8.812;2023-10-13T03:55:26;14.60;99.90
33837;DHT22;20140;49.356;8.812;2023-10-13T03:57:55;14.50;99.90
33837;DHT22;20140;49.356;8.812;2023-10-13T04:00:22;14.50;99.90
33837;DHT22;20140;49.356;8.812;2023-10-13T04:02:52;14.50;99.90
33837;DHT22;20140;49.356;8.812;2023-10-13T04:05:33;14.60;99.90
33837;DHT22;20140;49.356;8.812;2023-10-13T04:08:03;14.60;99.90
33837;DHT22;20140;49.356;8.812;2023-10-13T04:10:49;14.40;99.90
33837;DHT22;20140;49.356;8.812;2023-10-13T04:13:17;14.30;99.90
33837;DHT22;20140;49.356;8.812;2023-10-13T04:15:43;14.40;99.90
33837;DHT22;20140;49.356;8.812;2023-10-13T04:18:29;14.40;99.90
33837;DHT22;20140;49.356;8.812;2023-10-13T04:21:16;14.50;99.90
33837;DHT22;20140;49.356;8.812;2023-10-13T04:24:02;14.50;99.90
33837;DHT22;20140;49.356;8.812;2023-10-13T04:26:42;14.50;99.90
33837;DHT22;20140;49.356;8.812;2023-10-13T04:29:28;14.50;99.90
33837;DHT22;20140;49.356;8.812;2023-10-13T04:32:12;14.50;99.90
33837;DHT22;20140;49.356;8.812;2023-10-13T04:34:41;14.50;99.90
33837;DHT22;20140;49.356;8.812;2023-10-13T04:37:11;14.30;99.90
33837;DHT22;20140;49.356;8.812;2023-10-13T04:39:58;14.30;99.90
33837;DHT22;20140;49.356;8.812;2023-10-13T04:42:35;14.20;99.90
33837;DHT22;20140;49.356;8.812;2023-10-13T04:45:22;14.10;99.90
33837;DHT22;20140;49.356;8.812;2023-10-13T04:47:58;14.10;99.90
33837;DHT22;20140;49.356;8.812;2023-10-13T04:50:44;14.10;99.90
33837;DHT22;20140;49.356;8.812;2023-10-13T04:53:15;14.10;99.90
33837;DHT22;20140;49.356;8.812;2023-10-13T04:55:55;14.00;99.90
33837;DHT22;20140;49.356;8.812;2023-10-13T04:58:55;14.10;99.90
33837;DHT22;20140;49.356;8.812;2023-10-13T05:01:39;14.10;99.90
33837;DHT22;20140;49.356;8.812;2023-10-13T05:04:25;14.10;99.90
33837;DHT22;20140;49.356;8.812;2023-10-13T05:07:25;14.00;99.90
33837;DHT22;20140;49.356;8.812;2023-10-13T05:10:09;14.00;99.90
33837;DHT22;20140;49.356;8.812;2023-10-13T05:12:53;13.90;99.90
33837;DHT22;20140;49.356;8.812;2023-10-13T05:15:47;13.90;99.90
33837;DHT22;20140;49.356;8.812;2023-10-13T05:18:31;13.80;99.90
33837;DHT22;20140;49.356;8.812;2023-10-13T05:21:16;14.00;99.90
33837;DHT22;20140;49.356;8.812;2023-10-13T05:24:00;14.00;99.90
33837;DHT22;20140;49.356;8.812;2023-10-13T05:26:44;13.90;99.90
33837;DHT22;20140;49.356;8.812;2023-10-13T05:29:28;13.90;99.90
33837;DHT22;20140;49.356;8.812;2023-10-13T05:32:12;14.00;99.90
33837;DHT22;20140;49.356;8.812;2023-10-13T05:34:56;14.00;99.90
33837;DHT22;20140;49.356;8.812;2023-10-13T05:37:40;13.90;99.90
33837;DHT22;20140;49.356;8.812;2023-10-13T05:40:24;13.80;99.90
33837;DHT22;20140;49.356;8.812;2023-10-13T05:43:08;13.70;99.90
33837;DHT22;20140;49.356;8.812;2023-10-13T05:45:54;13.60;99.90
33837;DHT22;20140;49.356;8.812;2023-10-13T05:48:38;13.50;99.90
33837;DHT22;20140;49.356;8.812;2023-10-13T05:51:28;13.50;99.90
33837;DHT22;20140;49.356;8.812;2023-10-13T05:54:00;13.50;99.90
33837;DHT22;20140;49.356;8.812;2023-10-13T05:56:45;13.60;99.90
33837;DHT22;20140;49.356;8.812;2023-10-13T05:59:34;13.50;99.90
33837;DHT22;20140;49.356;8.812;2023-10-13T06:02:19;13.50;99.90
33837;DHT22;20140;49.356;8.812;2023-10-13T06:05:05;13.50;99.90
33837;DHT22;20140;49.356;8.812;2023-10-13T06:07:50;13.70;99.90
33837;DHT22;20140;49.356;8.812;2023-10-13T06:10:35;13.70;99.90
33837;DHT22;20140;49.356;8.812;2023-10-13T06:13:20;13.60;99.90
33837;DHT22;20140;49.356;8.812;2023-10-13T06:16:08;13.60;99.90
33837;DHT22;20140;49.356;8.812;2023-10-13T06:18:52;13.50;99.90
33837;DHT22;20140;49.356;8.812;2023-10-13T06:21:37;13.10;99.90
33837;DHT22;20140;49.356;8.812;2023-10-13T06:24:21;13.00;99.90
33837;DHT22;20140;49.356;8.812;2023-10-13T06:27:05;12.90;99.90
33837;DHT22;20140;49.356;8.812;2023-10-13T06:29:49;13.00;99.90
33837;DHT22;20140;49.356;8.812;2023-10-13T06:32:15;13.00;99.90
33837;DHT22;20140;49.356;8.812;2023-10-13T06:34:42;12.80;99.90
33837;DHT22;20140;49.356;8.812;2023-10-13T06:37:19;12.90;99.90
33837;DHT22;20140;49.356;8.812;2023-10-13T06:39:52;12.80;99.90
33837;DHT22;20140;49.356;8.812;2023-10-13T06:42:27;12.90;99.90
33837;DHT22;20140;49.356;8.812;2023-10-13T06:44:53;13.00;99.90
33837;DHT22;20140;49.356;8.812;2023-10-13T06:47:22;13.20;99.90
33837;DHT22;20140;49.356;8.812;2023-10-13T06:49:50;13.10;99.90
33837;DHT22;20140;49.356;8.812;2023-10-13T06:52:20;13.10;99.90
33837;DHT22;20140;49.356;8.812;2023-10-13T06:54:50;13.10;99.90
33837;DHT22;20140;49.356;8.812;2023-10-13T06:57:16;13.20;99.90
33837;DHT22;20140;49.356;8.812;2023-10-13T06:59:46;13.20;99.90
33837;DHT22;20140;49.356;8.812;2023-10-13T07:02:12;13.10;99.90
33837;DHT22;20140;49.356;8.812;2023-10-13T07:04:49;13.20;99.90
33837;DHT22;20140;49.356;8.812;2023-10-13T07:07:28;13.40;99.90
33837;DHT22;20140;49.356;8.812;2023-10-13T07:09:55;13.50;99.90
33837;DHT22;20140;49.356;8.812;2023-10-13T07:12:23;13.40;99.90
33837;DHT22;20140;49.356;8.812;2023-10-13T07:14:51;13.40;99.90
33837;DHT22;20140;49.356;8.812;2023-10-13T07:17:18;13.60;99.90
33837;DHT22;20140;49.356;8.812;2023-10-13T07:19:53;13.70;99.90
33837;DHT22;20140;49.356;8.812;2023-10-13T07:22:22;13.80;99.90
33837;DHT22;20140;49.356;8.812;2023-10-13T07:24:49;14.10;99.90
33837;DHT22;20140;49.356;8.812;2023-10-13T07:27:16;14.20;99.90
33837;DHT22;20140;49.356;8.812;2023-10-13T07:29:49;14.40;99.90
33837;DHT22;20140;49.356;8.812;2023-10-13T07:32:24;14.40;99.90
33837;DHT22;20140;49.356;8.812;2023-10-13T07:34:54;14.40;99.90
33837;DHT22;20140;49.356;8.812;2023-10-13T07:37:23;14.40;99.90
33837;DHT22;20140;49.356;8.812;2023-10-13T07:39:55;14.50;99.90
33837;DHT22;20140;49.356;8.812;2023-10-13T07:42:26;14.70;99.90
33837;DHT22;20140;49.356;8.812;2023-10-13T07:44:58;14.80;99.90
33837;DHT22;20140;49.356;8.812;2023-10-13T07:47:24;14.80;99.90
33837;DHT22;20140;49.356;8.812;2023-10-13T07:49:52;14.80;99.90
33837;DHT22;20140;49.356;8.812;2023-10-13T07:52:17;15.00;99.90
33837;DHT22;20140;49.356;8.812;2023-10-13T07:54:47;15.10;99.90
33837;DHT22;20140;49.356;8.812;2023-10-13T07:57:15;15.30;99.90
33837;DHT22;20140;49.356;8.812;2023-10-13T07:59:41;15.20;99.90
33837;DHT22;20140;49.356;8.812;2023-10-13T08:02:13;15.40;99.90
33837;DHT22;20140;49.356;8.812;2023-10-13T08:04:40;15.50;99.90
33837;DHT22;20140;49.356;8.812;2023-10-13T08:07:06;15.60;99.90
33837;DHT22;20140;49.356;8.812;2023-10-13T08:09:40;15.60;99.90
33837;DHT22;20140;49.356;8.812;2023-10-13T08:12:07;15.80;99.90
33837;DHT22;20140;49.356;8.812;2023-10-13T08:14:37;15.80;99.90
33837;DHT22;20140;49.356;8.812;2023-10-13T08:17:07;15.90;99.90
33837;DHT22;20140;49.356;8.812;2023-10-13T08:19:35;16.00;99.90
33837;DHT22;20140;49.356;8.812;2023-10-13T08:22:10;16.00;99.90
33837;DHT22;20140;49.356;8.812;2023-10-13T08:24:45;15.80;99.90
33837;DHT22;20140;49.356;8.812;2023-10-13T08:27:13;15.90;99.90
33837;DHT22;20140;49.356;8.812;2023-10-13T08:29:45;16.10;99.90
33837;DHT22;20140;49.356;8.812;2023-10-13T08:32:21;16.20;99.90
33837;DHT22;20140;49.356;8.812;2023-10-13T08:34:49;16.10;99.90
33837;DHT22;20140;49.356;8.812;2023-10-13T08:37:18;16.40;99.90
33837;DHT22;20140;49.356;8.812;2023-10-13T08:39:47;16.50;99.90
33837;DHT22;20140;49.356;8.812;2023-10-13T08:42:37;16.50;99.90
33837;DHT22;20140;49.356;8.812;2023-10-13T08:45:27;16.70;99.90
33837;DHT22;20140;49.356;8.812;2023-10-13T08:47:56;16.90;99.90
33837;DHT22;20140;49.356;8.812;2023-10-13T08:50:43;17.00;99.90
33837;DHT22;20140;49.356;8.812;2023-10-13T08:53:22;17.10;99.90
33837;DHT22;20140;49.356;8.812;2023-10-13T08:58:28;17.30;99.90
33837;DHT22;20140;49.356;8.812;2023-10-13T09:01:12;17.40;99.90
33837;DHT22;20140;49.356;8.812;2023-10-13T09:03:41;17.50;99.90
33837;DHT22;20140;49.356;8.812;2023-10-13T09:06:12;17.60;99.90
33837;DHT22;20140;49.356;8.812;2023-10-13T09:08:40;17.70;99.90
33837;DHT22;20140;49.356;8.812;2023-10-13T09:11:25;17.60;99.90
33837;DHT22;20140;49.356;8.812;2023-10-13T09:13:52;17.70;99.90
33837;DHT22;20140;49.356;8.812;2023-10-13T09:16:17;17.70;99.90
33837;DHT22;20140;49.356;8.812;2023-10-13T09:19:02;17.60;99.90
33837;DHT22;20140;49.356;8.812;2023-10-13T09:21:46;17.50;99.90
33837;DHT22;20140;49.356;8.812;2023-10-13T09:24:13;17.60;99.90
33837;DHT22;20140;49.356;8.812;2023-10-13T09:26:52;18.00;99.90
33837;DHT22;20140;49.356;8.812;2023-10-13T09:29:22;18.20;99.90
33837;DHT22;20140;49.356;8.812;2023-10-13T09:31:59;18.30;99.90
33837;DHT22;20140;49.356;8.812;2023-10-13T09:34:25;18.60;99.90
33837;DHT22;20140;49.356;8.812;2023-10-13T09:36:57;18.80;99.90
33837;DHT22;20140;49.356;8.812;2023-10-13T09:39:25;18.80;99.90
33837;DHT22;20140;49.356;8.812;2023-10-13T09:41:56;19.00;99.90
33837;DHT22;20140;49.356;8.812;2023-10-13T09:44:25;19.10;99.90
33837;DHT22;20140;49.356;8.812;2023-10-13T09:46:58;19.20;99.90
33837;DHT22;20140;49.356;8.812;2023-10-13T09:49:29;19.10;99.90
33837;DHT22;20140;49.356;8.812;2023-10-13T09:52:12;19.30;99.90
33837;DHT22;20140;49.356;8.812;2023-10-13T09:57:29;19.80;99.90
33837;DHT22;20140;49.356;8.812;2023-10-13T10:00:12;20.00;99.90
33837;DHT22;20140;49.356;8.812;2023-10-13T10:03:09;19.90;99.90
33837;DHT22;20140;49.356;8.812;2023-10-13T10:05:59;20.10;99.90
33837;DHT22;20140;49.356;8.812;2023-10-13T10:08:44;20.40;99.90
33837;DHT22;20140;49.356;8.812;2023-10-13T10:17:25;20.70;99.90
33837;DHT22;20140;49.356;8.812;2023-10-13T10:19:55;21.00;99.90
33837;DHT22;20140;49.356;8.812;2023-10-13T10:22:32;21.30;99.90
33837;DHT22;20140;49.356;8.812;2023-10-13T10:25:10;21.50;99.90
33837;DHT22;20140;49.356;8.812;2023-10-13T10:30:28;21.70;99.90
33837;DHT22;20140;49.356;8.812;2023-10-13T10:32:57;22.00;99.90
33837;DHT22;20140;49.356;8.812;2023-10-13T10:35:27;22.10;99.90
33837;DHT22;20140;49.356;8.812;2023-10-13T10:38:06;22.30;99.90
33837;DHT22;20140;49.356;8.812;2023-10-13T10:43:17;22.20;99.90
33837;DHT22;20140;49.356;8.812;2023-10-13T10:45:47;22.30;99.90
33837;DHT22;20140;49.356;8.812;2023-10-13T10:48:16;22.80;99.90
33837;DHT22;20140;49.356;8.812;2023-10-13T10:50:51;23.20;99.90
33837;DHT22;20140;49.356;8.812;2023-10-13T10:53:20;23.60;99.90
33837;DHT22;20140;49.356;8.812;2023-10-13T10:55:48;23.90;99.90
33837;DHT22;20140;49.356;8.812;2023-10-13T10:58:13;23.90;99.90
33837;DHT22;20140;49.356;8.812;2023-10-13T11:01:05;24.00;99.90
33837;DHT22;20140;49.356;8.812;2023-10-13T11:03:36;23.90;99.90
33837;DHT22;20140;49.356;8.812;2023-10-13T11:06:11;24.00;99.90
33837;DHT22;20140;49.356;8.812;2023-10-13T11:08:42;24.10;99.90
33837;DHT22;20140;49.356;8.812;2023-10-13T11:11:09;24.30;99.90
33837;DHT22;20140;49.356;8.812;2023-10-13T11:13:44;24.50;99.90
33837;DHT22;20140;49.356;8.812;2023-10-13T11:16:47;24.50;99.90
33837;DHT22;20140;49.356;8.812;2023-10-13T11:19:17;24.80;99.90
33837;DHT22;20140;49.356;8.812;2023-10-13T11:21:49;25.00;99.90
33837;DHT22;20140;49.356;8.812;2023-10-13T11:24:15;25.30;99.90
33837;DHT22;20140;49.356;8.812;2023-10-13T11:26:43;25.30;99.90
33837;DHT22;20140;49.356;8.812;2023-10-13T11:29:19;25.30;99.90
33837;DHT22;20140;49.356;8.812;2023-10-13T11:31:48;25.80;98.90
33837;DHT22;20140;49.356;8.812;2023-10-13T11:34:20;25.70;98.60
33837;DHT22;20140;49.356;8.812;2023-10-13T11:36:45;25.50;98.40
33837;DHT22;20140;49.356;8.812;2023-10-13T11:39:11;25.70;98.80
33837;DHT22;20140;49.356;8.812;2023-10-13T11:41:43;25.80;98.00
33837;DHT22;20140;49.356;8.812;2023-10-13T11:44:16;25.90;96.80
33837;DHT22;20140;49.356;8.812;2023-10-13T11:46:47;26.00;98.90
33837;DHT22;20140;49.356;8.812;2023-10-13T11:49:12;25.70;98.50
33837;DHT22;20140;49.356;8.812;2023-10-13T11:51:45;25.70;96.90
33837;DHT22;20140;49.356;8.812;2023-10-13T11:54:19;25.70;97.60
33837;DHT22;20140;49.356;8.812;2023-10-13T11:56:45;25.60;97.50
33837;DHT22;20140;49.356;8.812;2023-10-13T11:59:11;26.10;94.70
33837;DHT22;20140;49.356;8.812;2023-10-13T12:01:50;26.10;95.40
33837;DHT22;20140;49.356;8.812;2023-10-13T12:04:35;26.40;95.30
33837;DHT22;20140;49.356;8.812;2023-10-13T12:07:01;26.30;94.80
33837;DHT22;20140;49.356;8.812;2023-10-13T12:09:47;26.30;94.60
33837;DHT22;20140;49.356;8.812;2023-10-13T12:12:22;26.90;92.60
33837;DHT22;20140;49.356;8.812;2023-10-13T12:14:48;27.40;92.50
33837;DHT22;20140;49.356;8.812;2023-10-13T12:17:26;27.80;91.30
33837;DHT22;20140;49.356;8.812;2023-10-13T12:19:57;27.80;90.40
33837;DHT22;20140;49.356;8.812;2023-10-13T12:22:22;27.80;90.50
33837;DHT22;20140;49.356;8.812;2023-10-13T12:24:52;27.40;86.40
33837;DHT22;20140;49.356;8.812;2023-10-13T12:27:21;27.80;87.00
33837;DHT22;20140;49.356;8.812;2023-10-13T12:29:59;27.90;89.10
33837;DHT22;20140;49.356;8.812;2023-10-13T12:32:33;28.30;83.00
33837;DHT22;20140;49.356;8.812;2023-10-13T12:34:59;28.30;84.70
33837;DHT22;20140;49.356;8.812;2023-10-13T12:37:42;28.50;84.40
33837;DHT22;20140;49.356;8.812;2023-10-13T12:40:14;28.20;83.00
33837;DHT22;20140;49.356;8.812;2023-10-13T12:42:59;28.20;79.70
33837;DHT22;20140;49.356;8.812;2023-10-13T12:45:47;27.90;82.10
33837;DHT22;20140;49.356;8.812;2023-10-13T12:48:33;28.20;83.30
33837;DHT22;20140;49.356;8.812;2023-10-13T12:51:17;28.00;84.40
33837;DHT22;20140;49.356;8.812;2023-10-13T12:53:50;28.20;82.30
33837;DHT22;20140;49.356;8.812;2023-10-13T12:56:17;28.40;84.10
33837;DHT22;20140;49.356;8.812;2023-10-13T12:58:46;28.20;80.70
33837;DHT22;20140;49.356;8.812;2023-10-13T13:01:26;28.00;83.60
33837;DHT22;20140;49.356;8.812;2023-10-13T13:03:58;27.40;85.50
33837;DHT22;20140;49.356;8.812;2023-10-13T13:06:26;27.00;83.90
33837;DHT22;20140;49.356;8.812;2023-10-13T13:08:56;27.00;84.90
33837;DHT22;20140;49.356;8.812;2023-10-13T13:11:22;26.80;87.70
33837;DHT22;20140;49.356;8.812;2023-10-13T13:13:48;26.80;84.30
33837;DHT22;20140;49.356;8.812;2023-10-13T13:16:15;26.90;85.20
33837;DHT22;20140;49.356;8.812;2023-10-13T13:18:46;27.50;86.00
33837;DHT22;20140;49.356;8.812;2023-10-13T13:21:11;28.50;84.50
33837;DHT22;20140;49.356;8.812;2023-10-13T13:23:38;28.60;80.60
33837;DHT22;20140;49.356;8.812;2023-10-13T13:26:05;28.10;79.20
33837;DHT22;20140;49.356;8.812;2023-10-13T13:28:44;27.40;80.80
33837;DHT22;20140;49.356;8.812;2023-10-13T13:31:09;27.40;81.50
33837;DHT22;20140;49.356;8.812;2023-10-13T13:33:38;27.40;81.00
33837;DHT22;20140;49.356;8.812;2023-10-13T13:36:05;27.40;84.60
33837;DHT22;20140;49.356;8.812;2023-10-13T13:38:30;27.30;82.60
33837;DHT22;20140;49.356;8.812;2023-10-13T13:40:58;27.00;85.30
33837;DHT22;20140;49.356;8.812;2023-10-13T13:43:24;27.30;83.90
33837;DHT22;20140;49.356;8.812;2023-10-13T13:46:19;27.70;83.70
33837;DHT22;20140;49.356;8.812;2023-10-13T13:48:50;28.40;81.70
33837;DHT22;20140;49.356;8.812;2023-10-13T13:51:17;29.00;78.10
33837;DHT22;20140;49.356;8.812;2023-10-13T13:53:52;29.50;78.30
33837;DHT22;20140;49.356;8.812;2023-10-13T13:56:18;29.60;76.50
33837;DHT22;20140;49.356;8.812;2023-10-13T13:58:45;29.70;72.80
33837;DHT22;20140;49.356;8.812;2023-10-13T14:01:11;30.00;75.00
33837;DHT22;20140;49.356;8.812;2023-10-13T14:03:52;30.20;72.70
33837;DHT22;20140;49.356;8.812;2023-10-13T14:06:22;29.80;74.60
33837;DHT22;20140;49.356;8.812;2023-10-13T14:08:52;30.00;72.70
33837;DHT22;20140;49.356;8.812;2023-10-13T14:11:26;30.20;70.90
33837;DHT22;20140;49.356;8.812;2023-10-13T14:14:14;29.80;71.20
33837;DHT22;20140;49.356;8.812;2023-10-13T14:16:53;29.80;71.20
33837;DHT22;20140;49.356;8.812;2023-10-13T14:19:19;30.10;72.40
33837;DHT22;20140;49.356;8.812;2023-10-13T14:21:52;30.20;70.40
33837;DHT22;20140;49.356;8.812;2023-10-13T14:24:19;30.10;70.80
33837;DHT22;20140;49.356;8.812;2023-10-13T14:26:53;30.30;70.10
33837;DHT22;20140;49.356;8.812;2023-10-13T14:29:18;30.40;69.50
33837;DHT22;20140;49.356;8.812;2023-10-13T14:31:44;30.70;68.00
33837;DHT22;20140;49.356;8.812;2023-10-13T14:34:09;30.50;68.20
33837;DHT22;20140;49.356;8.812;2023-10-13T14:36:36;30.30;70.30
33837;DHT22;20140;49.356;8.812;2023-10-13T14:39:04;30.10;67.10
33837;DHT22;20140;49.356;8.812;2023-10-13T14:41:37;30.30;66.30
33837;DHT22;20140;49.356;8.812;2023-10-13T14:44:06;30.20;66.30
33837;DHT22;20140;49.356;8.812;2023-10-13T14:46:33;30.00;67.30
33837;DHT22;20140;49.356;8.812;2023-10-13T14:49:02;30.10;67.00
33837;DHT22;20140;49.356;8.812;2023-10-13T14:51:28;30.30;68.70
33837;DHT22;20140;49.356;8.812;2023-10-13T14:53:54;29.90;67.00
33837;DHT22;20140;49.356;8.812;2023-10-13T14:56:25;29.10;66.70
33837;DHT22;20140;49.356;8.812;2023-10-13T14:58:52;28.60;69.20
33837;DHT22;20140;49.356;8.812;2023-10-13T15:01:19;28.20;70.90
33837;DHT22;20140;49.356;8.812;2023-10-13T15:03:49;27.90;72.20
33837;DHT22;20140;49.356;8.812;2023-10-13T15:06:25;27.80;72.50
33837;DHT22;20140;49.356;8.812;2023-10-13T15:08:52;27.70;73.90
33837;DHT22;20140;49.356;8.812;2023-10-13T15:11:20;27.80;75.50
33837;DHT22;20140;49.356;8.812;2023-10-13T15:13:46;27.70;75.60
33837;DHT22;20140;49.356;8.812;2023-10-13T15:16:20;27.60;82.80
33837;DHT22;20140;49.356;8.812;2023-10-13T15:18:48;27.20;89.40
33837;DHT22;20140;49.356;8.812;2023-10-13T15:21:26;26.70;90.80
33837;DHT22;20140;49.356;8.812;2023-10-13T15:23:56;26.40;94.90
33837;DHT22;20140;49.356;8.812;2023-10-13T15:26:25;26.10;98.00
33837;DHT22;20140;49.356;8.812;2023-10-13T15:28:51;25.90;99.90
33837;DHT22;20140;49.356;8.812;2023-10-13T15:31:21;25.80;99.90
33837;DHT22;20140;49.356;8.812;2023-10-13T15:34:01;25.90;99.90
33837;DHT22;20140;49.356;8.812;2023-10-13T15:36:41;26.20;99.90
33837;DHT22;20140;49.356;8.812;2023-10-13T15:39:09;26.20;99.90
33837;DHT22;20140;49.356;8.812;2023-10-13T15:41:36;26.10;99.90
33837;DHT22;20140;49.356;8.812;2023-10-13T15:44:05;26.00;99.90
33837;DHT22;20140;49.356;8.812;2023-10-13T15:46:35;26.30;99.90
33837;DHT22;20140;49.356;8.812;2023-10-13T15:49:01;26.10;99.90
33837;DHT22;20140;49.356;8.812;2023-10-13T15:51:28;26.10;99.90
33837;DHT22;20140;49.356;8.812;2023-10-13T15:53:55;25.90;99.90
33837;DHT22;20140;49.356;8.812;2023-10-13T15:56:21;25.80;99.90
33837;DHT22;20140;49.356;8.812;2023-10-13T15:58:47;25.70;99.90
33837;DHT22;20140;49.356;8.812;2023-10-13T16:01:13;25.60;99.90
33837;DHT22;20140;49.356;8.812;2023-10-13T16:03:43;25.30;99.90
33837;DHT22;20140;49.356;8.812;2023-10-13T16:06:12;25.10;99.90
33837;DHT22;20140;49.356;8.812;2023-10-13T16:08:41;25.00;99.90
33837;DHT22;20140;49.356;8.812;2023-10-13T16:11:12;25.10;99.90
33837;DHT22;20140;49.356;8.812;2023-10-13T16:13:45;24.80;99.90
33837;DHT22;20140;49.356;8.812;2023-10-13T16:16:29;24.60;99.90
33837;DHT22;20140;49.356;8.812;2023-10-13T16:18:55;24.20;99.90
33837;DHT22;20140;49.356;8.812;2023-10-13T16:21:21;24.00;99.90
33837;DHT22;20140;49.356;8.812;2023-10-13T16:23:48;23.50;99.90